Terminal Aerodrome Forecast
Issued by NWS

Home | Current Version | Previous Version | Text Only | Print | Product List | Glossary On
Versions: 1 2 3 4 5 6 7 8 9 10 11 12
000
FTUS41 KLWX 282320
TAFMTN
TAF
KMTN 282320Z 2900/2924 16007KT P6SM SCT250
     FM291900 19010G21KT P6SM FEW060
      AMD NOT SKED 2902/2912=

USA.gov is the U.S. government's official web portal to all federal, state and local government web resources and services.